sensor_id;sensor_type;location;lat;lon;timestamp;P1;durP1;ratioP1;P2;durP2;ratioP2
18172;SDS011;9211;48.818;9.312;2023-05-07T00:00:48;7.57;;;4.00;;
18172;SDS011;9211;48.818;9.312;2023-05-07T00:03:16;9.07;;;4.00;;
18172;SDS011;9211;48.818;9.312;2023-05-07T00:05:44;8.18;;;4.00;;
18172;SDS011;9211;48.818;9.312;2023-05-07T00:08:11;8.17;;;4.03;;
18172;SDS011;9211;48.818;9.312;2023-05-07T00:10:38;8.23;;;4.00;;
18172;SDS011;9211;48.818;9.312;2023-05-07T00:13:05;7.10;;;4.03;;
18172;SDS011;9211;48.818;9.312;2023-05-07T00:15:33;7.72;;;4.03;;
18172;SDS011;9211;48.818;9.312;2023-05-07T00:18:00;7.40;;;4.38;;
18172;SDS011;9211;48.818;9.312;2023-05-07T00:20:27;7.25;;;3.80;;
18172;SDS011;9211;48.818;9.312;2023-05-07T00:22:54;7.53;;;4.20;;
18172;SDS011;9211;48.818;9.312;2023-05-07T00:25:21;8.77;;;4.17;;
18172;SDS011;9211;48.818;9.312;2023-05-07T00:27:48;7.32;;;3.67;;
18172;SDS011;9211;48.818;9.312;2023-05-07T00:30:15;6.60;;;3.80;;
18172;SDS011;9211;48.818;9.312;2023-05-07T00:32:44;7.07;;;4.20;;
18172;SDS011;9211;48.818;9.312;2023-05-07T00:35:11;8.32;;;3.80;;
18172;SDS011;9211;48.818;9.312;2023-05-07T00:37:38;7.30;;;3.70;;
18172;SDS011;9211;48.818;9.312;2023-05-07T00:40:06;8.25;;;3.50;;
18172;SDS011;9211;48.818;9.312;2023-05-07T00:42:33;8.73;;;4.10;;
18172;SDS011;9211;48.818;9.312;2023-05-07T00:45:00;7.38;;;3.85;;
18172;SDS011;9211;48.818;9.312;2023-05-07T00:47:28;7.45;;;3.90;;
18172;SDS011;9211;48.818;9.312;2023-05-07T00:49:56;7.75;;;4.03;;
18172;SDS011;9211;48.818;9.312;2023-05-07T00:52:24;7.15;;;3.85;;
18172;SDS011;9211;48.818;9.312;2023-05-07T00:54:52;5.75;;;3.50;;
18172;SDS011;9211;48.818;9.312;2023-05-07T00:57:20;7.03;;;4.10;;
18172;SDS011;9211;48.818;9.312;2023-05-07T00:59:48;10.27;;;3.90;;
18172;SDS011;9211;48.818;9.312;2023-05-07T01:02:16;6.78;;;4.18;;
18172;SDS011;9211;48.818;9.312;2023-05-07T01:04:43;7.25;;;4.15;;
18172;SDS011;9211;48.818;9.312;2023-05-07T01:07:12;7.82;;;4.22;;
18172;SDS011;9211;48.818;9.312;2023-05-07T01:09:39;9.18;;;3.85;;
18172;SDS011;9211;48.818;9.312;2023-05-07T01:12:07;6.80;;;3.90;;
18172;SDS011;9211;48.818;9.312;2023-05-07T01:14:34;7.13;;;3.80;;
18172;SDS011;9211;48.818;9.312;2023-05-07T01:17:02;6.60;;;3.73;;
18172;SDS011;9211;48.818;9.312;2023-05-07T01:19:29;8.13;;;3.93;;
18172;SDS011;9211;48.818;9.312;2023-05-07T01:22:01;7.10;;;3.85;;
18172;SDS011;9211;48.818;9.312;2023-05-07T01:24:33;7.90;;;3.72;;
18172;SDS011;9211;48.818;9.312;2023-05-07T01:27:03;6.03;;;3.78;;
18172;SDS011;9211;48.818;9.312;2023-05-07T01:29:34;7.45;;;3.72;;
18172;SDS011;9211;48.818;9.312;2023-05-07T01:32:01;5.65;;;3.90;;
18172;SDS011;9211;48.818;9.312;2023-05-07T01:34:31;7.80;;;3.67;;
18172;SDS011;9211;48.818;9.312;2023-05-07T01:36:59;7.20;;;3.60;;
18172;SDS011;9211;48.818;9.312;2023-05-07T01:39:27;9.57;;;3.90;;
18172;SDS011;9211;48.818;9.312;2023-05-07T01:41:57;6.30;;;3.70;;
18172;SDS011;9211;48.818;9.312;2023-05-07T01:44:26;8.40;;;3.67;;
18172;SDS011;9211;48.818;9.312;2023-05-07T01:46:53;8.50;;;3.80;;
18172;SDS011;9211;48.818;9.312;2023-05-07T01:49:21;8.02;;;3.80;;
18172;SDS011;9211;48.818;9.312;2023-05-07T01:51:48;7.33;;;3.60;;
18172;SDS011;9211;48.818;9.312;2023-05-07T01:54:15;6.28;;;3.85;;
18172;SDS011;9211;48.818;9.312;2023-05-07T01:56:43;6.78;;;3.63;;
18172;SDS011;9211;48.818;9.312;2023-05-07T01:59:11;6.28;;;3.60;;
18172;SDS011;9211;48.818;9.312;2023-05-07T02:01:39;6.25;;;3.83;;
18172;SDS011;9211;48.818;9.312;2023-05-07T02:04:06;6.18;;;3.60;;
18172;SDS011;9211;48.818;9.312;2023-05-07T02:06:35;6.32;;;3.50;;
18172;SDS011;9211;48.818;9.312;2023-05-07T02:09:04;6.70;;;3.60;;
18172;SDS011;9211;48.818;9.312;2023-05-07T02:11:31;6.90;;;3.70;;
18172;SDS011;9211;48.818;9.312;2023-05-07T02:13:58;6.75;;;3.67;;
18172;SDS011;9211;48.818;9.312;2023-05-07T02:16:26;5.72;;;3.60;;
18172;SDS011;9211;48.818;9.312;2023-05-07T02:18:53;7.68;;;3.40;;
18172;SDS011;9211;48.818;9.312;2023-05-07T02:21:20;5.30;;;3.50;;
18172;SDS011;9211;48.818;9.312;2023-05-07T02:23:47;6.93;;;3.53;;
18172;SDS011;9211;48.818;9.312;2023-05-07T02:26:14;6.43;;;3.92;;
18172;SDS011;9211;48.818;9.312;2023-05-07T02:28:41;7.95;;;3.88;;
18172;SDS011;9211;48.818;9.312;2023-05-07T02:31:09;5.88;;;3.67;;
18172;SDS011;9211;48.818;9.312;2023-05-07T02:33:37;5.75;;;3.47;;
18172;SDS011;9211;48.818;9.312;2023-05-07T02:36:07;6.15;;;3.30;;
18172;SDS011;9211;48.818;9.312;2023-05-07T02:38:36;5.88;;;3.55;;
18172;SDS011;9211;48.818;9.312;2023-05-07T02:41:04;5.47;;;3.20;;
18172;SDS011;9211;48.818;9.312;2023-05-07T02:43:31;6.80;;;3.50;;
18172;SDS011;9211;48.818;9.312;2023-05-07T02:46:01;6.38;;;3.38;;
18172;SDS011;9211;48.818;9.312;2023-05-07T02:48:28;5.10;;;2.90;;
18172;SDS011;9211;48.818;9.312;2023-05-07T02:50:57;7.13;;;3.10;;
18172;SDS011;9211;48.818;9.312;2023-05-07T02:53:24;6.13;;;2.95;;
18172;SDS011;9211;48.818;9.312;2023-05-07T02:55:52;8.90;;;3.40;;
18172;SDS011;9211;48.818;9.312;2023-05-07T02:58:19;6.85;;;3.10;;
18172;SDS011;9211;48.818;9.312;2023-05-07T03:00:46;4.75;;;2.85;;
18172;SDS011;9211;48.818;9.312;2023-05-07T03:03:27;8.13;;;3.20;;
18172;SDS011;9211;48.818;9.312;2023-05-07T03:05:54;5.57;;;3.10;;
18172;SDS011;9211;48.818;9.312;2023-05-07T03:08:22;6.20;;;3.00;;
18172;SDS011;9211;48.818;9.312;2023-05-07T03:10:50;4.72;;;3.10;;
18172;SDS011;9211;48.818;9.312;2023-05-07T03:13:17;6.47;;;3.25;;
18172;SDS011;9211;48.818;9.312;2023-05-07T03:15:44;5.20;;;3.10;;
18172;SDS011;9211;48.818;9.312;2023-05-07T03:18:11;5.18;;;3.03;;
18172;SDS011;9211;48.818;9.312;2023-05-07T03:20:38;8.00;;;3.22;;
18172;SDS011;9211;48.818;9.312;2023-05-07T03:23:05;4.03;;;2.80;;
18172;SDS011;9211;48.818;9.312;2023-05-07T03:25:34;5.22;;;3.10;;
18172;SDS011;9211;48.818;9.312;2023-05-07T03:28:01;5.35;;;3.30;;
18172;SDS011;9211;48.818;9.312;2023-05-07T03:30:37;4.75;;;3.47;;
18172;SDS011;9211;48.818;9.312;2023-05-07T03:33:04;6.22;;;3.38;;
18172;SDS011;9211;48.818;9.312;2023-05-07T03:35:31;7.13;;;3.10;;
18172;SDS011;9211;48.818;9.312;2023-05-07T03:37:58;5.65;;;3.10;;
18172;SDS011;9211;48.818;9.312;2023-05-07T03:40:28;5.93;;;3.40;;
18172;SDS011;9211;48.818;9.312;2023-05-07T03:42:57;4.70;;;3.30;;
18172;SDS011;9211;48.818;9.312;2023-05-07T03:45:27;8.30;;;3.30;;
18172;SDS011;9211;48.818;9.312;2023-05-07T03:48:05;7.82;;;3.30;;
18172;SDS011;9211;48.818;9.312;2023-05-07T03:50:32;8.65;;;3.50;;
18172;SDS011;9211;48.818;9.312;2023-05-07T03:52:59;4.88;;;3.20;;
18172;SDS011;9211;48.818;9.312;2023-05-07T03:55:27;6.45;;;3.20;;
18172;SDS011;9211;48.818;9.312;2023-05-07T03:57:59;6.70;;;3.13;;
18172;SDS011;9211;48.818;9.312;2023-05-07T04:00:27;6.90;;;3.53;;
18172;SDS011;9211;48.818;9.312;2023-05-07T04:02:58;5.83;;;3.17;;
18172;SDS011;9211;48.818;9.312;2023-05-07T04:05:29;6.18;;;3.20;;
18172;SDS011;9211;48.818;9.312;2023-05-07T04:08:00;5.97;;;3.30;;
18172;SDS011;9211;48.818;9.312;2023-05-07T04:10:36;8.63;;;3.30;;
18172;SDS011;9211;48.818;9.312;2023-05-07T04:13:09;7.03;;;3.10;;
18172;SDS011;9211;48.818;9.312;2023-05-07T04:15:36;4.90;;;2.88;;
18172;SDS011;9211;48.818;9.312;2023-05-07T04:18:07;5.30;;;2.80;;
18172;SDS011;9211;48.818;9.312;2023-05-07T04:20:34;5.07;;;3.13;;
18172;SDS011;9211;48.818;9.312;2023-05-07T04:23:04;6.38;;;3.33;;
18172;SDS011;9211;48.818;9.312;2023-05-07T04:25:32;5.25;;;3.00;;
18172;SDS011;9211;48.818;9.312;2023-05-07T04:28:08;4.78;;;3.20;;
18172;SDS011;9211;48.818;9.312;2023-05-07T04:30:38;5.22;;;3.05;;
18172;SDS011;9211;48.818;9.312;2023-05-07T04:33:06;6.55;;;3.10;;
18172;SDS011;9211;48.818;9.312;2023-05-07T04:35:35;4.95;;;2.92;;
18172;SDS011;9211;48.818;9.312;2023-05-07T04:38:03;5.72;;;3.10;;
18172;SDS011;9211;48.818;9.312;2023-05-07T04:40:30;6.97;;;3.17;;
18172;SDS011;9211;48.818;9.312;2023-05-07T04:43:00;7.15;;;3.55;;
18172;SDS011;9211;48.818;9.312;2023-05-07T04:45:31;5.53;;;3.00;;
18172;SDS011;9211;48.818;9.312;2023-05-07T04:47:58;5.07;;;3.17;;
18172;SDS011;9211;48.818;9.312;2023-05-07T04:50:26;4.22;;;2.95;;
18172;SDS011;9211;48.818;9.312;2023-05-07T04:52:58;6.87;;;2.80;;
18172;SDS011;9211;48.818;9.312;2023-05-07T04:55:25;5.00;;;2.90;;
18172;SDS011;9211;48.818;9.312;2023-05-07T04:57:52;4.50;;;2.90;;
18172;SDS011;9211;48.818;9.312;2023-05-07T05:00:20;4.75;;;3.20;;
18172;SDS011;9211;48.818;9.312;2023-05-07T05:02:51;3.75;;;2.65;;
18172;SDS011;9211;48.818;9.312;2023-05-07T05:05:21;5.05;;;2.88;;
18172;SDS011;9211;48.818;9.312;2023-05-07T05:07:51;5.78;;;2.83;;
18172;SDS011;9211;48.818;9.312;2023-05-07T05:10:18;4.10;;;2.95;;
18172;SDS011;9211;48.818;9.312;2023-05-07T05:12:46;7.23;;;3.17;;
18172;SDS011;9211;48.818;9.312;2023-05-07T05:15:13;6.25;;;2.80;;
18172;SDS011;9211;48.818;9.312;2023-05-07T05:17:41;6.00;;;3.10;;
18172;SDS011;9211;48.818;9.312;2023-05-07T05:20:09;4.57;;;3.00;;
18172;SDS011;9211;48.818;9.312;2023-05-07T05:22:38;5.78;;;2.90;;
18172;SDS011;9211;48.818;9.312;2023-05-07T05:25:07;7.38;;;3.00;;
18172;SDS011;9211;48.818;9.312;2023-05-07T05:27:34;4.28;;;2.75;;
18172;SDS011;9211;48.818;9.312;2023-05-07T05:30:01;5.20;;;2.97;;
18172;SDS011;9211;48.818;9.312;2023-05-07T05:32:30;5.75;;;3.13;;
18172;SDS011;9211;48.818;9.312;2023-05-07T05:34:58;5.65;;;2.95;;
18172;SDS011;9211;48.818;9.312;2023-05-07T05:37:27;5.80;;;3.13;;
18172;SDS011;9211;48.818;9.312;2023-05-07T05:39:56;4.88;;;2.70;;
18172;SDS011;9211;48.818;9.312;2023-05-07T05:42:25;5.87;;;2.80;;
18172;SDS011;9211;48.818;9.312;2023-05-07T05:44:52;8.40;;;3.00;;
18172;SDS011;9211;48.818;9.312;2023-05-07T05:47:19;4.63;;;2.92;;
18172;SDS011;9211;48.818;9.312;2023-05-07T05:49:46;5.20;;;3.00;;
18172;SDS011;9211;48.818;9.312;2023-05-07T05:52:15;5.22;;;3.08;;
18172;SDS011;9211;48.818;9.312;2023-05-07T05:54:44;6.85;;;2.92;;
18172;SDS011;9211;48.818;9.312;2023-05-07T05:57:11;9.97;;;3.13;;
18172;SDS011;9211;48.818;9.312;2023-05-07T05:59:38;6.40;;;2.90;;
18172;SDS011;9211;48.818;9.312;2023-05-07T06:02:05;4.73;;;3.00;;
18172;SDS011;9211;48.818;9.312;2023-05-07T06:04:33;4.28;;;2.92;;
18172;SDS011;9211;48.818;9.312;2023-05-07T06:07:01;5.32;;;2.75;;
18172;SDS011;9211;48.818;9.312;2023-05-07T06:09:28;7.47;;;2.53;;
18172;SDS011;9211;48.818;9.312;2023-05-07T06:11:56;4.25;;;2.63;;
18172;SDS011;9211;48.818;9.312;2023-05-07T06:14:23;5.38;;;2.58;;
18172;SDS011;9211;48.818;9.312;2023-05-07T06:16:54;4.43;;;2.60;;
18172;SDS011;9211;48.818;9.312;2023-05-07T06:19:21;5.50;;;2.40;;
18172;SDS011;9211;48.818;9.312;2023-05-07T06:21:49;6.63;;;2.60;;
18172;SDS011;9211;48.818;9.312;2023-05-07T06:24:16;4.40;;;2.40;;
18172;SDS011;9211;48.818;9.312;2023-05-07T06:26:43;4.77;;;2.30;;
18172;SDS011;9211;48.818;9.312;2023-05-07T06:29:13;3.88;;;2.10;;
18172;SDS011;9211;48.818;9.312;2023-05-07T06:31:41;4.10;;;2.17;;
18172;SDS011;9211;48.818;9.312;2023-05-07T06:34:09;6.18;;;2.40;;
18172;SDS011;9211;48.818;9.312;2023-05-07T06:36:40;3.53;;;2.20;;
18172;SDS011;9211;48.818;9.312;2023-05-07T06:39:29;3.03;;;2.10;;
18172;SDS011;9211;48.818;9.312;2023-05-07T06:41:56;3.85;;;2.20;;
18172;SDS011;9211;48.818;9.312;2023-05-07T06:44:28;3.70;;;2.30;;
18172;SDS011;9211;48.818;9.312;2023-05-07T06:47:07;3.13;;;2.30;;
18172;SDS011;9211;48.818;9.312;2023-05-07T06:49:35;3.30;;;2.40;;
18172;SDS011;9211;48.818;9.312;2023-05-07T06:52:02;3.22;;;2.00;;
18172;SDS011;9211;48.818;9.312;2023-05-07T06:54:29;3.35;;;2.00;;
18172;SDS011;9211;48.818;9.312;2023-05-07T06:56:57;3.80;;;2.10;;
18172;SDS011;9211;48.818;9.312;2023-05-07T06:59:26;3.58;;;2.22;;
18172;SDS011;9211;48.818;9.312;2023-05-07T07:01:55;4.93;;;2.60;;
18172;SDS011;9211;48.818;9.312;2023-05-07T07:04:22;4.43;;;3.00;;
18172;SDS011;9211;48.818;9.312;2023-05-07T07:06:58;5.80;;;4.03;;
18172;SDS011;9211;48.818;9.312;2023-05-07T07:09:25;5.43;;;4.25;;
18172;SDS011;9211;48.818;9.312;2023-05-07T07:11:53;6.57;;;4.38;;
18172;SDS011;9211;48.818;9.312;2023-05-07T07:14:20;5.03;;;3.80;;
18172;SDS011;9211;48.818;9.312;2023-05-07T07:16:50;5.72;;;4.03;;
18172;SDS011;9211;48.818;9.312;2023-05-07T07:19:20;4.35;;;3.13;;
18172;SDS011;9211;48.818;9.312;2023-05-07T07:21:49;4.95;;;2.80;;
18172;SDS011;9211;48.818;9.312;2023-05-07T07:24:16;3.53;;;2.40;;
18172;SDS011;9211;48.818;9.312;2023-05-07T07:26:47;3.40;;;2.20;;
18172;SDS011;9211;48.818;9.312;2023-05-07T07:29:15;3.67;;;2.10;;
18172;SDS011;9211;48.818;9.312;2023-05-07T07:31:44;2.40;;;1.90;;
18172;SDS011;9211;48.818;9.312;2023-05-07T07:34:11;3.35;;;1.90;;
18172;SDS011;9211;48.818;9.312;2023-05-07T07:36:40;3.07;;;1.87;;
18172;SDS011;9211;48.818;9.312;2023-05-07T07:39:07;2.30;;;1.73;;
18172;SDS011;9211;48.818;9.312;2023-05-07T07:41:35;3.40;;;1.60;;
18172;SDS011;9211;48.818;9.312;2023-05-07T07:44:03;2.70;;;1.70;;
18172;SDS011;9211;48.818;9.312;2023-05-07T07:46:35;2.92;;;1.63;;
18172;SDS011;9211;48.818;9.312;2023-05-07T07:49:02;3.30;;;1.70;;
18172;SDS011;9211;48.818;9.312;2023-05-07T07:51:29;3.27;;;1.60;;
18172;SDS011;9211;48.818;9.312;2023-05-07T07:53:59;2.22;;;1.65;;
18172;SDS011;9211;48.818;9.312;2023-05-07T07:56:28;2.38;;;1.70;;
18172;SDS011;9211;48.818;9.312;2023-05-07T07:58:55;3.30;;;1.80;;
18172;SDS011;9211;48.818;9.312;2023-05-07T08:01:22;3.42;;;1.80;;
18172;SDS011;9211;48.818;9.312;2023-05-07T08:03:50;6.93;;;3.97;;
18172;SDS011;9211;48.818;9.312;2023-05-07T08:06:17;4.53;;;2.60;;
18172;SDS011;9211;48.818;9.312;2023-05-07T08:08:44;3.63;;;2.40;;
18172;SDS011;9211;48.818;9.312;2023-05-07T08:11:12;3.30;;;2.00;;
18172;SDS011;9211;48.818;9.312;2023-05-07T08:13:40;2.70;;;1.70;;
18172;SDS011;9211;48.818;9.312;2023-05-07T08:16:07;2.88;;;1.80;;
18172;SDS011;9211;48.818;9.312;2023-05-07T08:18:35;2.97;;;1.50;;
18172;SDS011;9211;48.818;9.312;2023-05-07T08:21:02;2.45;;;1.55;;
18172;SDS011;9211;48.818;9.312;2023-05-07T08:23:30;3.03;;;1.60;;
18172;SDS011;9211;48.818;9.312;2023-05-07T08:25:59;2.63;;;1.60;;
18172;SDS011;9211;48.818;9.312;2023-05-07T08:28:29;2.88;;;1.80;;
18172;SDS011;9211;48.818;9.312;2023-05-07T08:30:56;2.23;;;1.50;;
18172;SDS011;9211;48.818;9.312;2023-05-07T08:33:26;2.60;;;1.70;;
18172;SDS011;9211;48.818;9.312;2023-05-07T08:35:53;2.92;;;1.90;;
18172;SDS011;9211;48.818;9.312;2023-05-07T08:38:20;3.03;;;1.90;;
18172;SDS011;9211;48.818;9.312;2023-05-07T08:40:47;2.60;;;1.90;;
18172;SDS011;9211;48.818;9.312;2023-05-07T08:43:18;3.13;;;2.30;;
18172;SDS011;9211;48.818;9.312;2023-05-07T08:45:48;2.53;;;1.95;;
18172;SDS011;9211;48.818;9.312;2023-05-07T08:48:21;3.40;;;2.00;;
18172;SDS011;9211;48.818;9.312;2023-05-07T08:51:02;2.20;;;1.83;;
18172;SDS011;9211;48.818;9.312;2023-05-07T08:53:30;4.47;;;1.98;;
18172;SDS011;9211;48.818;9.312;2023-05-07T08:55:58;5.20;;;2.70;;
18172;SDS011;9211;48.818;9.312;2023-05-07T08:58:27;3.17;;;2.40;;
18172;SDS011;9211;48.818;9.312;2023-05-07T09:00:56;4.45;;;2.53;;
18172;SDS011;9211;48.818;9.312;2023-05-07T09:03:24;3.33;;;2.13;;
18172;SDS011;9211;48.818;9.312;2023-05-07T09:05:54;3.75;;;2.03;;
18172;SDS011;9211;48.818;9.312;2023-05-07T09:08:24;2.67;;;2.00;;
18172;SDS011;9211;48.818;9.312;2023-05-07T09:10:55;2.58;;;1.98;;
18172;SDS011;9211;48.818;9.312;2023-05-07T09:13:38;3.03;;;1.90;;
18172;SDS011;9211;48.818;9.312;2023-05-07T09:16:11;3.10;;;2.00;;
18172;SDS011;9211;48.818;9.312;2023-05-07T09:18:41;2.53;;;1.90;;
18172;SDS011;9211;48.818;9.312;2023-05-07T09:21:10;2.55;;;1.85;;
18172;SDS011;9211;48.818;9.312;2023-05-07T09:23:38;2.92;;;1.90;;
18172;SDS011;9211;48.818;9.312;2023-05-07T09:26:06;2.47;;;1.90;;
18172;SDS011;9211;48.818;9.312;2023-05-07T09:28:38;3.87;;;2.10;;
18172;SDS011;9211;48.818;9.312;2023-05-07T09:31:08;2.88;;;1.90;;
18172;SDS011;9211;48.818;9.312;2023-05-07T09:33:37;2.90;;;1.77;;
18172;SDS011;9211;48.818;9.312;2023-05-07T09:36:05;7.68;;;3.08;;
18172;SDS011;9211;48.818;9.312;2023-05-07T09:38:35;21.33;;;7.05;;
18172;SDS011;9211;48.818;9.312;2023-05-07T09:41:04;8.85;;;3.33;;
18172;SDS011;9211;48.818;9.312;2023-05-07T09:43:36;8.18;;;4.90;;
18172;SDS011;9211;48.818;9.312;2023-05-07T09:46:07;18.08;;;9.73;;
18172;SDS011;9211;48.818;9.312;2023-05-07T09:48:44;8.23;;;4.47;;
18172;SDS011;9211;48.818;9.312;2023-05-07T09:51:15;4.70;;;2.67;;
18172;SDS011;9211;48.818;9.312;2023-05-07T09:53:48;3.95;;;1.95;;
18172;SDS011;9211;48.818;9.312;2023-05-07T09:56:19;2.92;;;1.73;;
18172;SDS011;9211;48.818;9.312;2023-05-07T09:58:52;3.40;;;1.70;;
18172;SDS011;9211;48.818;9.312;2023-05-07T10:01:22;5.15;;;1.85;;
18172;SDS011;9211;48.818;9.312;2023-05-07T10:03:53;5.18;;;1.98;;
18172;SDS011;9211;48.818;9.312;2023-05-07T10:06:20;2.80;;;1.77;;
18172;SDS011;9211;48.818;9.312;2023-05-07T10:08:48;3.78;;;1.80;;
18172;SDS011;9211;48.818;9.312;2023-05-07T10:11:17;3.20;;;1.77;;
18172;SDS011;9211;48.818;9.312;2023-05-07T10:13:45;3.83;;;1.80;;
18172;SDS011;9211;48.818;9.312;2023-05-07T10:16:14;3.22;;;1.75;;
18172;SDS011;9211;48.818;9.312;2023-05-07T10:18:46;5.25;;;1.70;;
18172;SDS011;9211;48.818;9.312;2023-05-07T10:21:20;2.80;;;1.70;;
18172;SDS011;9211;48.818;9.312;2023-05-07T10:23:53;3.83;;;1.67;;
18172;SDS011;9211;48.818;9.312;2023-05-07T10:26:25;2.85;;;1.83;;
18172;SDS011;9211;48.818;9.312;2023-05-07T10:28:54;2.17;;;1.50;;
18172;SDS011;9211;48.818;9.312;2023-05-07T10:31:32;2.42;;;1.67;;
18172;SDS011;9211;48.818;9.312;2023-05-07T10:34:21;3.53;;;1.40;;
18172;SDS011;9211;48.818;9.312;2023-05-07T10:36:51;2.92;;;1.73;;
18172;SDS011;9211;48.818;9.312;2023-05-07T10:39:21;3.50;;;1.73;;
18172;SDS011;9211;48.818;9.312;2023-05-07T10:41:49;4.00;;;1.70;;
18172;SDS011;9211;48.818;9.312;2023-05-07T10:44:24;3.85;;;1.75;;
18172;SDS011;9211;48.818;9.312;2023-05-07T10:47:03;5.22;;;1.70;;
18172;SDS011;9211;48.818;9.312;2023-05-07T10:49:31;3.53;;;1.77;;
18172;SDS011;9211;48.818;9.312;2023-05-07T10:52:14;2.97;;;1.77;;
18172;SDS011;9211;48.818;9.312;2023-05-07T11:00:58;1.67;;;1.40;;
18172;SDS011;9211;48.818;9.312;2023-05-07T11:03:32;2.95;;;1.67;;
18172;SDS011;9211;48.818;9.312;2023-05-07T11:06:08;2.95;;;1.50;;
18172;SDS011;9211;48.818;9.312;2023-05-07T11:09:03;2.93;;;1.60;;
18172;SDS011;9211;48.818;9.312;2023-05-07T11:11:52;3.40;;;1.67;;
18172;SDS011;9211;48.818;9.312;2023-05-07T11:14:45;2.93;;;1.50;;
18172;SDS011;9211;48.818;9.312;2023-05-07T11:17:27;3.15;;;1.50;;
18172;SDS011;9211;48.818;9.312;2023-05-07T11:20:02;12.40;;;7.20;;
18172;SDS011;9211;48.818;9.312;2023-05-07T11:22:37;25.13;;;15.10;;
18172;SDS011;9211;48.818;9.312;2023-05-07T11:25:22;9.27;;;5.90;;
18172;SDS011;9211;48.818;9.312;2023-05-07T11:28:04;3.38;;;2.00;;
18172;SDS011;9211;48.818;9.312;2023-05-07T11:30:32;4.32;;;2.80;;
18172;SDS011;9211;48.818;9.312;2023-05-07T11:33:01;2.22;;;1.60;;
18172;SDS011;9211;48.818;9.312;2023-05-07T11:35:29;3.10;;;1.60;;
18172;SDS011;9211;48.818;9.312;2023-05-07T11:37:58;3.97;;;1.80;;
18172;SDS011;9211;48.818;9.312;2023-05-07T11:40:31;3.40;;;1.73;;
18172;SDS011;9211;48.818;9.312;2023-05-07T11:43:10;2.55;;;1.75;;
18172;SDS011;9211;48.818;9.312;2023-05-07T11:45:37;4.70;;;1.70;;
18172;SDS011;9211;48.818;9.312;2023-05-07T11:48:04;4.75;;;2.70;;
18172;SDS011;9211;48.818;9.312;2023-05-07T11:50:31;5.77;;;2.30;;
18172;SDS011;9211;48.818;9.312;2023-05-07T11:52:59;3.85;;;2.10;;
18172;SDS011;9211;48.818;9.312;2023-05-07T11:55:47;6.35;;;2.83;;
18172;SDS011;9211;48.818;9.312;2023-05-07T11:58:23;2.60;;;1.70;;
18172;SDS011;9211;48.818;9.312;2023-05-07T12:00:54;1.63;;;1.30;;
18172;SDS011;9211;48.818;9.312;2023-05-07T12:03:21;2.05;;;1.27;;
18172;SDS011;9211;48.818;9.312;2023-05-07T12:05:48;2.30;;;1.48;;
18172;SDS011;9211;48.818;9.312;2023-05-07T12:08:15;2.10;;;1.30;;
18172;SDS011;9211;48.818;9.312;2023-05-07T12:10:43;3.58;;;1.27;;
18172;SDS011;9211;48.818;9.312;2023-05-07T12:13:16;2.80;;;1.30;;
18172;SDS011;9211;48.818;9.312;2023-05-07T12:15:44;1.90;;;1.23;;
18172;SDS011;9211;48.818;9.312;2023-05-07T12:18:11;3.47;;;1.35;;
18172;SDS011;9211;48.818;9.312;2023-05-07T12:20:39;2.78;;;1.50;;
18172;SDS011;9211;48.818;9.312;2023-05-07T12:23:06;4.10;;;1.48;;
18172;SDS011;9211;48.818;9.312;2023-05-07T12:25:34;4.38;;;1.38;;
18172;SDS011;9211;48.818;9.312;2023-05-07T12:28:02;1.83;;;1.40;;
18172;SDS011;9211;48.818;9.312;2023-05-07T12:30:31;1.85;;;1.35;;
18172;SDS011;9211;48.818;9.312;2023-05-07T12:32:58;2.97;;;1.60;;
18172;SDS011;9211;48.818;9.312;2023-05-07T12:35:26;2.38;;;1.60;;
18172;SDS011;9211;48.818;9.312;2023-05-07T12:37:56;3.15;;;1.55;;
18172;SDS011;9211;48.818;9.312;2023-05-07T12:40:29;2.15;;;1.50;;
18172;SDS011;9211;48.818;9.312;2023-05-07T12:43:02;4.25;;;1.80;;
18172;SDS011;9211;48.818;9.312;2023-05-07T12:45:29;2.88;;;1.80;;
18172;SDS011;9211;48.818;9.312;2023-05-07T12:48:00;3.58;;;1.58;;
18172;SDS011;9211;48.818;9.312;2023-05-07T12:50:30;3.28;;;1.50;;
18172;SDS011;9211;48.818;9.312;2023-05-07T12:52:58;4.65;;;1.60;;
18172;SDS011;9211;48.818;9.312;2023-05-07T12:55:28;4.50;;;1.60;;
18172;SDS011;9211;48.818;9.312;2023-05-07T12:57:55;3.05;;;1.50;;
18172;SDS011;9211;48.818;9.312;2023-05-07T13:00:35;2.80;;;1.48;;
18172;SDS011;9211;48.818;9.312;2023-05-07T13:03:05;4.65;;;1.30;;
18172;SDS011;9211;48.818;9.312;2023-05-07T13:05:32;3.42;;;1.40;;
18172;SDS011;9211;48.818;9.312;2023-05-07T13:08:00;3.80;;;1.40;;
18172;SDS011;9211;48.818;9.312;2023-05-07T13:10:27;3.25;;;1.48;;
18172;SDS011;9211;48.818;9.312;2023-05-07T13:12:54;3.67;;;1.40;;
18172;SDS011;9211;48.818;9.312;2023-05-07T13:15:21;2.30;;;1.20;;
18172;SDS011;9211;48.818;9.312;2023-05-07T13:17:48;2.42;;;1.20;;
18172;SDS011;9211;48.818;9.312;2023-05-07T13:20:16;7.30;;;1.60;;
18172;SDS011;9211;48.818;9.312;2023-05-07T13:22:43;4.03;;;1.83;;
18172;SDS011;9211;48.818;9.312;2023-05-07T13:25:10;3.92;;;1.63;;
18172;SDS011;9211;48.818;9.312;2023-05-07T13:27:37;4.75;;;1.75;;
18172;SDS011;9211;48.818;9.312;2023-05-07T13:30:05;8.43;;;1.90;;
18172;SDS011;9211;48.818;9.312;2023-05-07T13:32:32;4.03;;;1.52;;
18172;SDS011;9211;48.818;9.312;2023-05-07T13:35:00;4.00;;;1.33;;
18172;SDS011;9211;48.818;9.312;2023-05-07T13:37:28;5.30;;;1.48;;
18172;SDS011;9211;48.818;9.312;2023-05-07T13:39:55;5.70;;;1.80;;
18172;SDS011;9211;48.818;9.312;2023-05-07T13:42:22;6.57;;;1.73;;
18172;SDS011;9211;48.818;9.312;2023-05-07T13:44:49;6.45;;;1.50;;
18172;SDS011;9211;48.818;9.312;2023-05-07T13:47:16;5.72;;;1.42;;
18172;SDS011;9211;48.818;9.312;2023-05-07T13:49:43;4.07;;;1.20;;
18172;SDS011;9211;48.818;9.312;2023-05-07T13:52:10;5.07;;;1.00;;
18172;SDS011;9211;48.818;9.312;2023-05-07T13:54:39;3.92;;;0.90;;
18172;SDS011;9211;48.818;9.312;2023-05-07T13:57:13;2.88;;;0.98;;
18172;SDS011;9211;48.818;9.312;2023-05-07T13:59:41;1.65;;;0.80;;
18172;SDS011;9211;48.818;9.312;2023-05-07T14:02:13;2.63;;;0.95;;
18172;SDS011;9211;48.818;9.312;2023-05-07T14:04:47;2.37;;;1.10;;
18172;SDS011;9211;48.818;9.312;2023-05-07T14:07:35;1.65;;;0.88;;
18172;SDS011;9211;48.818;9.312;2023-05-07T14:10:24;6.57;;;1.30;;
18172;SDS011;9211;48.818;9.312;2023-05-07T14:12:57;4.82;;;1.33;;
18172;SDS011;9211;48.818;9.312;2023-05-07T14:15:25;6.50;;;1.50;;
18172;SDS011;9211;48.818;9.312;2023-05-07T14:17:52;11.48;;;2.20;;
18172;SDS011;9211;48.818;9.312;2023-05-07T14:20:20;6.22;;;1.50;;
18172;SDS011;9211;48.818;9.312;2023-05-07T14:22:47;6.30;;;1.30;;
18172;SDS011;9211;48.818;9.312;2023-05-07T14:25:14;2.92;;;1.00;;
18172;SDS011;9211;48.818;9.312;2023-05-07T14:27:49;4.55;;;1.10;;
18172;SDS011;9211;48.818;9.312;2023-05-07T14:30:21;2.65;;;1.40;;
18172;SDS011;9211;48.818;9.312;2023-05-07T14:33:16;6.03;;;1.67;;
18172;SDS011;9211;48.818;9.312;2023-05-07T14:35:52;5.28;;;1.60;;
18172;SDS011;9211;48.818;9.312;2023-05-07T14:38:24;3.92;;;1.48;;
18172;SDS011;9211;48.818;9.312;2023-05-07T14:40:59;3.70;;;1.50;;
18172;SDS011;9211;48.818;9.312;2023-05-07T14:43:34;3.75;;;1.52;;
18172;SDS011;9211;48.818;9.312;2023-05-07T14:46:19;4.10;;;1.80;;
18172;SDS011;9211;48.818;9.312;2023-05-07T14:49:13;7.60;;;2.00;;
18172;SDS011;9211;48.818;9.312;2023-05-07T14:51:49;3.88;;;1.88;;
18172;SDS011;9211;48.818;9.312;2023-05-07T14:54:29;5.38;;;1.75;;
18172;SDS011;9211;48.818;9.312;2023-05-07T14:57:32;5.45;;;2.00;;
18172;SDS011;9211;48.818;9.312;2023-05-07T15:00:05;4.00;;;1.90;;
18172;SDS011;9211;48.818;9.312;2023-05-07T15:03:05;5.20;;;1.80;;
18172;SDS011;9211;48.818;9.312;2023-05-07T15:05:46;7.50;;;1.60;;
18172;SDS011;9211;48.818;9.312;2023-05-07T15:08:41;2.10;;;1.10;;
18172;SDS011;9211;48.818;9.312;2023-05-07T15:11:14;3.83;;;1.57;;
18172;SDS011;9211;48.818;9.312;2023-05-07T15:13:52;3.78;;;1.88;;
18172;SDS011;9211;48.818;9.312;2023-05-07T15:16:39;3.58;;;1.70;;
18172;SDS011;9211;48.818;9.312;2023-05-07T15:19:23;5.57;;;2.05;;
18172;SDS011;9211;48.818;9.312;2023-05-07T15:21:58;3.58;;;2.30;;
18172;SDS011;9211;48.818;9.312;2023-05-07T15:24:28;5.10;;;2.22;;